Time,TemperatureF,DewpointF,PressureIn,WindDirection,WindDirectionDegrees,WindSpeedMPH,WindSpeedGustMPH,Humidity,HourlyPrecipIn,Conditions,Clouds,dailyrainin,SoftwareType,DateUTC
2013-10-12 00:01:00,41.5,30.2,30.21,West,260,4.0,10.0,64,0.00,,,0.76,Wunderground v.1.15,2013-10-12 06:01:00,
2013-10-12 00:08:00,41.4,30.1,30.21,West,259,4.0,10.0,64,0.00,,,0.76,Wunderground v.1.15,2013-10-12 06:08:00,
2013-10-12 00:14:00,41.5,29.8,30.21,WNW,285,4.0,10.0,63,0.00,,,0.76,Wunderground v.1.15,2013-10-12 06:14:00,
2013-10-12 00:20:00,41.6,29.9,30.21,West,277,5.0,5.0,63,0.00,,,0.76,Wunderground v.1.15,2013-10-12 06:20:00,
2013-10-12 00:26:00,41.4,29.7,30.22,West,260,5.0,10.0,63,0.00,,,0.76,Wunderground v.1.15,2013-10-12 06:26:00,
2013-10-12 00:32:00,41.4,30.1,30.22,West,269,5.0,10.0,64,0.00,,,0.76,Wunderground v.1.15,2013-10-12 06:32:00,
2013-10-12 00:38:00,41.2,29.9,30.22,West,273,5.0,10.0,64,0.00,,,0.76,Wunderground v.1.15,2013-10-12 06:38:00,
2013-10-12 00:44:00,42.0,29.5,30.22,West,273,6.0,10.0,61,0.00,,,0.00,Wunderground v.1.15,2013-10-12 06:44:00,
2013-10-12 00:50:00,42.3,29.4,30.22,WNW,292,6.0,10.0,60,0.00,,,0.00,Wunderground v.1.15,2013-10-12 06:50:00,
2013-10-12 00:56:00,42.2,29.7,30.22,West,274,6.0,10.0,61,0.00,,,0.00,Wunderground v.1.15,2013-10-12 06:56:00,
2013-10-12 01:02:00,41.9,29.4,30.23,WNW,283,5.0,10.0,61,0.00,,,0.00,Wunderground v.1.15,2013-10-12 07:02:00,
2013-10-12 01:08:00,42.0,29.5,30.23,West,272,5.0,10.0,61,0.00,,,0.00,Wunderground v.1.15,2013-10-12 07:08:00,
2013-10-12 01:13:00,41.6,29.5,30.23,West,272,4.0,10.0,62,0.00,,,0.00,Wunderground v.1.15,2013-10-12 07:13:00,
2013-10-12 01:20:00,41.4,29.3,30.24,West,279,3.0,10.0,62,0.00,,,0.00,Wunderground v.1.15,2013-10-12 07:20:00,
2013-10-12 01:26:00,41.3,29.6,30.24,West,280,4.0,10.0,63,0.00,,,0.00,Wunderground v.1.15,2013-10-12 07:26:00,
2013-10-12 01:32:00,41.4,30.1,30.24,West,276,4.0,10.0,64,0.00,,,0.00,Wunderground v.1.15,2013-10-12 07:32:00,
2013-10-12 01:38:00,41.5,30.2,30.25,West,276,4.0,10.0,64,0.00,,,0.00,Wunderground v.1.15,2013-10-12 07:38:00,
2013-10-12 01:44:00,41.6,30.3,30.25,West,280,4.0,10.0,64,0.00,,,0.00,Wunderground v.1.15,2013-10-12 07:44:00,
2013-10-12 01:50:00,42.2,30.1,30.25,West,276,4.0,10.0,62,0.00,,,0.00,Wunderground v.1.15,2013-10-12 07:50:00,
2013-10-12 01:56:00,42.5,30.0,30.25,WNW,289,5.0,10.0,61,0.00,,,0.00,Wunderground v.1.15,2013-10-12 07:56:00,
2013-10-12 02:02:00,42.5,30.0,30.26,West,280,4.0,10.0,61,0.00,,,0.00,Wunderground v.1.15,2013-10-12 08:02:00,
2013-10-12 02:08:00,42.3,30.2,30.26,West,280,3.0,10.0,62,0.00,,,0.00,Wunderground v.1.15,2013-10-12 08:08:00,
2013-10-12 02:14:00,41.9,30.2,30.26,West,272,3.0,10.0,63,0.00,,,0.00,Wunderground v.1.15,2013-10-12 08:14:00,
2013-10-12 02:20:00,41.4,30.1,30.26,West,274,3.0,10.0,64,0.00,,,0.00,Wunderground v.1.15,2013-10-12 08:20:00,
2013-10-12 02:26:00,41.1,30.2,30.26,West,272,3.0,10.0,65,0.00,,,0.00,Wunderground v.1.15,2013-10-12 08:26:00,
2013-10-12 02:32:00,41.1,29.8,30.26,WNW,283,3.0,10.0,64,0.00,,,0.00,Wunderground v.1.15,2013-10-12 08:32:00,
2013-10-12 02:38:00,41.4,29.7,30.26,WSW,251,3.0,10.0,63,0.00,,,0.00,Wunderground v.1.15,2013-10-12 08:38:00,
2013-10-12 02:44:00,41.2,29.9,30.27,WSW,238,4.0,10.0,64,0.00,,,0.00,Wunderground v.1.15,2013-10-12 08:44:00,
2013-10-12 02:50:00,41.1,29.8,30.27,WSW,254,4.0,4.0,64,0.00,,,0.00,Wunderground v.1.15,2013-10-12 08:50:00,
2013-10-12 02:56:00,41.3,30.0,30.27,WSW,252,4.0,10.0,64,0.00,,,0.00,Wunderground v.1.15,2013-10-12 08:56:00,
2013-10-12 03:02:00,41.8,29.7,30.27,WSW,237,4.0,10.0,62,0.00,,,0.00,Wunderground v.1.15,2013-10-12 09:02:00,
2013-10-12 03:08:00,42.0,29.9,30.27,West,265,4.0,10.0,62,0.00,,,0.00,Wunderground v.1.15,2013-10-12 09:08:00,
2013-10-12 03:14:00,41.7,30.0,30.27,West,261,3.0,10.0,63,0.00,,,0.00,Wunderground v.1.15,2013-10-12 09:14:00,
2013-10-12 03:20:00,41.2,29.9,30.28,WSW,246,4.0,10.0,64,0.00,,,0.00,Wunderground v.1.15,2013-10-12 09:20:00,
2013-10-12 03:26:00,40.9,29.7,30.28,West,261,4.0,10.0,64,0.00,,,0.00,Wunderground v.1.15,2013-10-12 09:26:00,
2013-10-12 03:32:00,41.2,29.9,30.28,West,274,4.0,10.0,64,0.00,,,0.00,Wunderground v.1.15,2013-10-12 09:32:00,
2013-10-12 03:38:00,40.9,29.7,30.28,West,267,3.0,10.0,64,0.00,,,0.00,Wunderground v.1.15,2013-10-12 09:38:00,
2013-10-12 03:44:00,40.8,29.9,30.28,WSW,251,3.0,10.0,65,0.00,,,0.00,Wunderground v.1.15,2013-10-12 09:44:00,
2013-10-12 03:50:00,40.6,29.7,30.29,WSW,254,3.0,10.0,65,0.00,,,0.00,Wunderground v.1.15,2013-10-12 09:50:00,
2013-10-12 03:56:00,39.9,29.5,30.29,WSW,254,4.0,10.0,66,0.00,,,0.00,Wunderground v.1.15,2013-10-12 09:56:00,
2013-10-12 04:02:00,39.5,29.8,30.30,WSW,257,4.0,10.0,68,0.00,,,0.00,Wunderground v.1.15,2013-10-12 10:02:00,
2013-10-12 04:08:00,39.5,29.4,30.30,WSW,249,4.0,10.0,67,0.00,,,0.00,Wunderground v.1.15,2013-10-12 10:08:00,
2013-10-12 04:14:00,39.5,29.4,30.30,WSW,249,4.0,10.0,67,0.00,,,0.00,Wunderground v.1.15,2013-10-12 10:14:00,
2013-10-12 04:19:00,39.8,29.4,30.30,WSW,244,4.0,10.0,66,0.00,,,0.00,Wunderground v.1.15,2013-10-12 10:19:00,
2013-10-12 04:26:00,39.9,29.5,30.30,WSW,257,5.0,10.0,66,0.00,,,0.00,Wunderground v.1.15,2013-10-12 10:26:00,
2013-10-12 04:32:00,39.7,29.6,30.30,WSW,249,4.0,10.0,67,0.00,,,0.00,Wunderground v.1.15,2013-10-12 10:32:00,
2013-10-12 04:38:00,39.6,29.5,30.31,WSW,251,4.0,10.0,67,0.00,,,0.00,Wunderground v.1.15,2013-10-12 10:38:00,
2013-10-12 04:44:00,39.3,29.6,30.31,WSW,251,4.0,10.0,68,0.00,,,0.00,Wunderground v.1.15,2013-10-12 10:44:00,
2013-10-12 04:50:00,39.3,29.6,30.31,WSW,249,5.0,5.0,68,0.00,,,0.00,Wunderground v.1.15,2013-10-12 10:50:00,
2013-10-12 04:56:00,39.3,29.6,30.31,WSW,256,6.0,10.0,68,0.00,,,0.00,Wunderground v.1.15,2013-10-12 10:56:00,
2013-10-12 05:02:00,39.6,29.9,30.32,WSW,253,6.0,10.0,68,0.00,,,0.00,Wunderground v.1.15,2013-10-12 11:02:00,
2013-10-12 05:08:00,39.9,29.8,30.32,WSW,238,7.0,10.0,67,0.00,,,0.00,Wunderground v.1.15,2013-10-12 11:08:00,
2013-10-12 05:14:00,40.0,29.9,30.32,WSW,248,7.0,10.0,67,0.00,,,0.00,Wunderground v.1.15,2013-10-12 11:14:00,
2013-10-12 05:20:00,39.9,29.8,30.32,WSW,242,7.0,7.0,67,0.00,,,0.00,Wunderground v.1.15,2013-10-12 11:20:00,
2013-10-12 05:26:00,39.8,29.7,30.32,WSW,239,6.0,10.0,67,0.00,,,0.00,Wunderground v.1.15,2013-10-12 11:26:00,
2013-10-12 05:31:00,39.8,29.7,30.33,WSW,244,6.0,10.0,67,0.00,,,0.00,Wunderground v.1.15,2013-10-12 11:31:00,
2013-10-12 05:38:00,39.9,29.5,30.33,WSW,255,7.0,10.0,66,0.00,,,0.00,Wunderground v.1.15,2013-10-12 11:38:00,
2013-10-12 05:44:00,39.8,29.4,30.33,WSW,245,7.0,10.0,66,0.00,,,0.00,Wunderground v.1.15,2013-10-12 11:44:00,
2013-10-12 05:50:00,39.7,29.3,30.33,WSW,241,6.0,10.0,66,0.00,,,0.00,Wunderground v.1.15,2013-10-12 11:50:00,
2013-10-12 05:56:00,39.6,29.2,30.33,WSW,243,6.0,10.0,66,0.00,,,0.00,Wunderground v.1.15,2013-10-12 11:56:00,
2013-10-12 06:02:00,39.6,29.2,30.33,WSW,237,6.0,10.0,66,0.00,,,0.00,Wunderground v.1.15,2013-10-12 12:02:00,
2013-10-12 06:08:00,39.4,29.3,30.33,WSW,238,6.0,10.0,67,0.00,,,0.00,Wunderground v.1.15,2013-10-12 12:08:00,
2013-10-12 06:14:00,39.1,29.1,30.34,WSW,246,5.0,10.0,67,0.00,,,0.00,Wunderground v.1.15,2013-10-12 12:14:00,
2013-10-12 06:20:00,38.9,29.2,30.34,SW,235,5.0,10.0,68,0.00,,,0.00,Wunderground v.1.15,2013-10-12 12:20:00,
2013-10-12 06:26:00,39.1,29.4,30.34,WSW,237,6.0,10.0,68,0.00,,,0.00,Wunderground v.1.15,2013-10-12 12:26:00,
2013-10-12 06:32:00,39.5,29.4,30.34,SW,236,6.0,10.0,67,0.00,,,0.00,Wunderground v.1.15,2013-10-12 12:32:00,
2013-10-12 06:37:00,39.7,29.3,30.35,WSW,237,7.0,10.0,66,0.00,,,0.00,Wunderground v.1.15,2013-10-12 12:37:00,
2013-10-12 06:44:00,39.7,29.3,30.35,WSW,238,8.0,10.0,66,0.00,,,0.00,Wunderground v.1.15,2013-10-12 12:44:00,
2013-10-12 06:50:00,39.5,29.4,30.35,SW,233,8.0,10.0,67,0.00,,,0.00,Wunderground v.1.15,2013-10-12 12:50:00,
2013-10-12 06:56:00,39.7,29.3,30.35,SSW,212,8.0,10.0,66,0.00,,,0.00,Wunderground v.1.15,2013-10-12 12:56:00,
2013-10-12 07:02:00,39.7,29.3,30.35,SW,229,7.0,10.0,66,0.00,,,0.00,Wunderground v.1.15,2013-10-12 13:02:00,
2013-10-12 07:08:00,39.5,29.1,30.36,SW,235,7.0,10.0,66,0.00,,,0.00,Wunderground v.1.15,2013-10-12 13:08:00,
2013-10-12 07:14:00,39.3,29.3,30.36,WSW,245,7.0,10.0,67,0.00,,,0.00,Wunderground v.1.15,2013-10-12 13:14:00,
2013-10-12 07:20:00,38.9,29.2,30.36,West,267,5.0,5.0,68,0.00,,,0.00,Wunderground v.1.15,2013-10-12 13:20:00,
2013-10-12 07:26:00,38.4,29.1,30.36,West,270,2.0,10.0,69,0.00,,,0.00,Wunderground v.1.15,2013-10-12 13:26:00,
2013-10-12 07:32:00,37.8,28.9,30.36,West,275,2.0,10.0,70,0.00,,,0.00,Wunderground v.1.15,2013-10-12 13:32:00,
2013-10-12 07:38:00,37.2,29.0,30.37,West,274,2.0,10.0,72,0.00,,,0.00,Wunderground v.1.15,2013-10-12 13:38:00,
2013-10-12 07:44:00,36.9,29.1,30.37,West,274,1.0,10.0,73,0.00,,,0.00,Wunderground v.1.15,2013-10-12 13:44:00,
2013-10-12 07:50:00,36.8,29.3,30.37,West,274,1.0,10.0,74,0.00,,,0.00,Wunderground v.1.15,2013-10-12 13:50:00,
2013-10-12 07:56:00,37.0,29.5,30.38,West,274,1.0,10.0,74,0.00,,,0.00,Wunderground v.1.15,2013-10-12 13:56:00,
2013-10-12 08:02:00,37.3,29.8,30.38,West,274,1.0,10.0,74,0.00,,,0.00,Wunderground v.1.15,2013-10-12 14:02:00,
2013-10-12 08:08:00,38.2,30.6,30.38,West,260,2.0,10.0,74,0.00,,,0.00,Wunderground v.1.15,2013-10-12 14:08:00,
2013-10-12 08:14:00,39.4,31.1,30.39,West,268,2.0,10.0,72,0.00,,,0.00,Wunderground v.1.15,2013-10-12 14:14:00,
2013-10-12 08:20:00,40.6,31.6,30.39,West,277,2.0,10.0,70,0.00,,,0.00,Wunderground v.1.15,2013-10-12 14:20:00,
2013-10-12 08:26:00,41.5,31.4,30.39,West,266,3.0,10.0,67,0.00,,,0.00,Wunderground v.1.15,2013-10-12 14:26:00,
2013-10-12 08:32:00,42.4,31.8,30.39,West,276,3.0,10.0,66,0.00,,,0.00,Wunderground v.1.15,2013-10-12 14:32:00,
2013-10-12 08:38:00,43.0,32.0,30.40,West,275,3.0,10.0,65,0.00,,,0.00,Wunderground v.1.15,2013-10-12 14:38:00,
2013-10-12 08:44:00,43.5,32.1,30.40,WNW,290,3.0,10.0,64,0.00,,,0.00,Wunderground v.1.15,2013-10-12 14:44:00,
2013-10-12 08:50:00,43.9,32.1,30.40,WNW,285,3.0,10.0,63,0.00,,,0.00,Wunderground v.1.15,2013-10-12 14:50:00,
2013-10-12 08:56:00,44.3,31.7,30.39,West,273,3.0,10.0,61,0.00,,,0.00,Wunderground v.1.15,2013-10-12 14:56:00,
2013-10-12 09:02:00,44.7,30.8,30.40,West,276,3.0,10.0,58,0.00,,,0.00,Wunderground v.1.15,2013-10-12 15:02:00,
2013-10-12 09:08:00,45.2,31.7,30.40,West,274,4.0,10.0,59,0.00,,,0.00,Wunderground v.1.15,2013-10-12 15:08:00,
2013-10-12 09:14:00,45.4,30.6,30.40,West,274,4.0,10.0,56,0.00,,,0.00,Wunderground v.1.15,2013-10-12 15:14:00,
2013-10-12 09:20:00,45.6,30.3,30.40,West,278,4.0,10.0,55,0.00,,,0.00,Wunderground v.1.15,2013-10-12 15:20:00,
2013-10-12 09:26:00,45.9,30.6,30.40,WNW,285,4.0,10.0,55,0.00,,,0.00,Wunderground v.1.15,2013-10-12 15:26:00,
2013-10-12 09:32:00,46.0,30.7,30.40,WNW,289,3.0,10.0,55,0.00,,,0.00,Wunderground v.1.15,2013-10-12 15:32:00,
2013-10-12 09:38:00,46.1,31.3,30.40,NW,313,3.0,10.0,56,0.00,,,0.00,Wunderground v.1.15,2013-10-12 15:38:00,
2013-10-12 09:44:00,46.4,31.5,30.41,NW,309,2.0,10.0,56,0.00,,,0.00,Wunderground v.1.15,2013-10-12 15:44:00,
2013-10-12 09:50:00,46.8,30.6,30.41,NNW,336,3.0,10.0,53,0.00,,,0.00,Wunderground v.1.15,2013-10-12 15:50:00,
2013-10-12 09:56:00,47.2,31.4,30.41,NNW,330,4.0,10.0,54,0.00,,,0.00,Wunderground v.1.15,2013-10-12 15:56:00,
2013-10-12 10:02:00,47.7,30.4,30.41,NW,316,4.0,10.0,51,0.00,,,0.00,Wunderground v.1.15,2013-10-12 16:02:00,
2013-10-12 10:08:00,47.8,29.5,30.41,NW,306,6.0,10.0,49,0.00,,,0.00,Wunderground v.1.15,2013-10-12 16:08:00,
2013-10-12 10:14:00,47.9,30.1,30.42,WNW,296,6.0,10.0,50,0.00,,,0.00,Wunderground v.1.15,2013-10-12 16:14:00,
2013-10-12 10:20:00,48.1,30.3,30.42,NW,321,5.0,10.0,50,0.00,,,0.00,Wunderground v.1.15,2013-10-12 16:20:00,
2013-10-12 10:26:00,48.0,29.2,30.42,NW,324,5.0,10.0,48,0.00,,,0.00,Wunderground v.1.15,2013-10-12 16:26:00,
2013-10-12 10:32:00,48.1,29.8,30.41,WNW,289,4.0,10.0,49,0.00,,,0.00,Wunderground v.1.15,2013-10-12 16:32:00,
2013-10-12 10:38:00,48.3,31.0,30.41,NW,316,4.0,10.0,51,0.00,,,0.00,Wunderground v.1.15,2013-10-12 16:38:00,
2013-10-12 10:44:00,48.5,29.2,30.41,North,4,6.0,10.0,47,0.00,,,0.00,Wunderground v.1.15,2013-10-12 16:44:00,
2013-10-12 10:50:00,48.8,29.4,30.41,NNW,330,5.0,10.0,47,0.00,,,0.00,Wunderground v.1.15,2013-10-12 16:50:00,
2013-10-12 10:56:00,48.9,29.0,30.41,NW,307,5.0,10.0,46,0.00,,,0.00,Wunderground v.1.15,2013-10-12 16:56:00,
2013-10-12 11:02:00,48.9,29.0,30.41,North,4,5.0,6.0,46,0.00,,,0.00,Wunderground v.1.15,2013-10-12 17:02:00,
2013-10-12 11:08:00,49.1,29.7,30.41,NNE,27,5.0,10.0,47,0.00,,,0.00,Wunderground v.1.15,2013-10-12 17:08:00,
2013-10-12 11:14:00,49.0,29.1,30.41,North,354,6.0,10.0,46,0.00,,,0.00,Wunderground v.1.15,2013-10-12 17:14:00,
2013-10-12 11:20:00,49.1,29.2,30.41,North,4,5.0,5.0,46,0.00,,,0.00,Wunderground v.1.15,2013-10-12 17:20:00,
2013-10-12 11:26:00,49.2,29.3,30.41,North,349,5.0,10.0,46,0.00,,,0.00,Wunderground v.1.15,2013-10-12 17:26:00,
2013-10-12 11:32:00,49.0,29.1,30.41,North,354,4.0,10.0,46,0.00,,,0.00,Wunderground v.1.15,2013-10-12 17:32:00,
2013-10-12 11:38:00,49.2,29.3,30.41,North,10,4.0,10.0,46,0.00,,,0.00,Wunderground v.1.15,2013-10-12 17:38:00,
2013-10-12 11:44:00,49.3,29.4,30.41,NW,319,5.0,10.0,46,0.00,,,0.00,Wunderground v.1.15,2013-10-12 17:44:00,
2013-10-12 11:50:00,49.4,30.0,30.41,NNW,331,4.0,10.0,47,0.00,,,0.00,Wunderground v.1.15,2013-10-12 17:50:00,
2013-10-12 11:56:00,49.7,29.7,30.41,NNE,27,4.0,10.0,46,0.00,,,0.00,Wunderground v.1.15,2013-10-12 17:56:00,
2013-10-12 12:02:00,49.8,30.9,30.41,NNW,340,4.0,10.0,48,0.00,,,0.00,Wunderground v.1.15,2013-10-12 18:02:00,
2013-10-12 12:08:00,49.8,29.3,30.41,NNW,341,4.0,10.0,45,0.00,,,0.00,Wunderground v.1.15,2013-10-12 18:08:00,
2013-10-12 12:13:00,49.7,30.3,30.40,NNW,347,4.0,10.0,47,0.00,,,0.00,Wunderground v.1.15,2013-10-12 18:13:00,
2013-10-12 12:20:00,49.9,30.5,30.40,NNW,345,4.0,4.0,47,0.00,,,0.00,Wunderground v.1.15,2013-10-12 18:20:00,
2013-10-12 12:26:00,50.4,30.9,30.40,NNE,21,4.0,10.0,47,0.00,,,0.00,Wunderground v.1.15,2013-10-12 18:26:00,
2013-10-12 12:32:00,50.7,30.7,30.40,North,354,2.0,10.0,46,0.00,,,0.00,Wunderground v.1.15,2013-10-12 18:32:00,
2013-10-12 12:38:00,50.8,29.6,30.40,North,4,2.0,10.0,44,0.00,,,0.00,Wunderground v.1.15,2013-10-12 18:38:00,
2013-10-12 12:44:00,50.9,31.4,30.40,North,4,2.0,10.0,47,0.00,,,0.00,Wunderground v.1.15,2013-10-12 18:44:00,
2013-10-12 12:50:00,51.1,30.5,30.40,NE,35,1.0,10.0,45,0.00,,,0.00,Wunderground v.1.15,2013-10-12 18:50:00,
2013-10-12 12:56:00,51.1,31.0,30.40,NE,47,2.0,10.0,46,0.00,,,0.00,Wunderground v.1.15,2013-10-12 18:56:00,
2013-10-12 13:02:00,51.1,30.5,30.39,ENE,64,2.0,10.0,45,0.00,,,0.00,Wunderground v.1.15,2013-10-12 19:02:00,
2013-10-12 13:08:00,51.2,30.6,30.40,ENE,70,2.0,10.0,45,0.00,,,0.00,Wunderground v.1.15,2013-10-12 19:08:00,
2013-10-12 13:14:00,51.4,30.2,30.40,ENE,69,1.0,10.0,44,0.00,,,0.00,Wunderground v.1.15,2013-10-12 19:14:00,
2013-10-12 13:20:00,51.8,30.0,30.39,ENE,71,0.0,10.0,43,0.00,,,0.00,Wunderground v.1.15,2013-10-12 19:20:00,
2013-10-12 13:26:00,52.1,31.9,30.39,NE,38,1.0,10.0,46,0.00,,,0.00,Wunderground v.1.15,2013-10-12 19:26:00,
2013-10-12 13:32:00,51.7,31.0,30.39,NE,48,2.0,10.0,45,0.00,,,0.00,Wunderground v.1.15,2013-10-12 19:32:00,
2013-10-12 13:37:00,51.6,30.4,30.39,NE,53,2.0,10.0,44,0.00,,,0.00,Wunderground v.1.15,2013-10-12 19:37:00,
2013-10-12 13:44:00,51.6,31.5,30.39,North,354,2.0,10.0,46,0.00,,,0.00,Wunderground v.1.15,2013-10-12 19:44:00,
2013-10-12 13:50:00,52.1,31.9,30.39,North,354,1.0,10.0,46,0.00,,,0.00,Wunderground v.1.15,2013-10-12 19:50:00,
2013-10-12 13:56:00,52.2,30.9,30.39,NE,54,2.0,10.0,44,0.00,,,0.00,Wunderground v.1.15,2013-10-12 19:56:00,
2013-10-12 14:02:00,51.9,31.2,30.38,NE,56,3.0,10.0,45,0.00,,,0.00,Wunderground v.1.15,2013-10-12 20:02:00,
2013-10-12 14:08:00,51.5,30.8,30.38,East,82,3.0,10.0,45,0.00,,,0.00,Wunderground v.1.15,2013-10-12 20:08:00,
2013-10-12 14:14:00,51.6,30.9,30.38,East,87,2.0,10.0,45,0.00,,,0.00,Wunderground v.1.15,2013-10-12 20:14:00,
2013-10-12 14:20:00,51.7,31.0,30.38,NE,54,2.0,2.0,45,0.00,,,0.00,Wunderground v.1.15,2013-10-12 20:20:00,
2013-10-12 14:26:00,52.1,31.9,30.38,East,86,1.0,10.0,46,0.00,,,0.00,Wunderground v.1.15,2013-10-12 20:26:00,
2013-10-12 14:32:00,52.3,31.6,30.38,East,100,2.0,10.0,45,0.00,,,0.00,Wunderground v.1.15,2013-10-12 20:32:00,
2013-10-12 14:38:00,52.3,31.6,30.38,ENE,76,3.0,10.0,45,0.00,,,0.00,Wunderground v.1.15,2013-10-12 20:38:00,
2013-10-12 14:44:00,52.1,31.9,30.38,ESE,120,3.0,10.0,46,0.00,,,0.00,Wunderground v.1.15,2013-10-12 20:44:00,
2013-10-12 14:49:00,52.1,32.5,30.38,ENE,71,2.0,10.0,47,0.00,,,0.00,Wunderground v.1.15,2013-10-12 20:49:00,
2013-10-12 14:56:00,52.2,32.0,30.38,ENE,72,3.0,10.0,46,0.00,,,0.00,Wunderground v.1.15,2013-10-12 20:56:00,
2013-10-12 15:02:00,52.2,33.6,30.38,ESE,103,3.0,10.0,49,0.00,,,0.00,Wunderground v.1.15,2013-10-12 21:02:00,
2013-10-12 15:08:00,52.0,31.8,30.39,ENE,78,3.0,10.0,46,0.00,,,0.00,Wunderground v.1.15,2013-10-12 21:08:00,
2013-10-12 15:14:00,51.9,32.3,30.39,East,83,3.0,10.0,47,0.00,,,0.00,Wunderground v.1.15,2013-10-12 21:14:00,
2013-10-12 15:20:00,51.9,32.8,30.39,ENE,71,3.0,10.0,48,0.00,,,0.00,Wunderground v.1.15,2013-10-12 21:20:00,
2013-10-12 15:26:00,51.7,33.1,30.39,ENE,63,3.0,10.0,49,0.00,,,0.00,Wunderground v.1.15,2013-10-12 21:26:00,
2013-10-12 15:32:00,51.5,33.5,30.38,ENE,58,2.0,10.0,50,0.00,,,0.00,Wunderground v.1.15,2013-10-12 21:32:00,
2013-10-12 15:38:00,51.4,32.9,30.39,ENE,69,2.0,10.0,49,0.00,,,0.00,Wunderground v.1.15,2013-10-12 21:38:00,
2013-10-12 15:44:00,51.8,32.7,30.38,East,86,3.0,5.0,48,0.00,,,0.00,Wunderground v.1.15,2013-10-12 21:44:00,
2013-10-12 15:50:00,52.0,32.9,30.38,ENE,75,4.0,10.0,48,0.00,,,0.00,Wunderground v.1.15,2013-10-12 21:50:00,
2013-10-12 15:56:00,51.8,32.2,30.38,ESE,113,4.0,10.0,47,0.00,,,0.00,Wunderground v.1.15,2013-10-12 21:56:00,
2013-10-12 16:02:00,51.6,33.0,30.38,East,100,4.0,10.0,49,0.00,,,0.00,Wunderground v.1.15,2013-10-12 22:02:00,
2013-10-12 16:08:00,51.4,32.9,30.38,East,88,4.0,10.0,49,0.00,,,0.00,Wunderground v.1.15,2013-10-12 22:08:00,
2013-10-12 16:14:00,51.3,33.3,30.38,ESE,102,3.0,10.0,50,0.00,,,0.00,Wunderground v.1.15,2013-10-12 22:14:00,
2013-10-12 16:20:00,51.4,32.9,30.38,East,85,3.0,10.0,49,0.00,,,0.00,Wunderground v.1.15,2013-10-12 22:20:00,
2013-10-12 16:26:00,51.3,32.8,30.38,East,79,3.0,10.0,49,0.00,,,0.00,Wunderground v.1.15,2013-10-12 22:26:00,
2013-10-12 16:32:00,51.2,33.2,30.39,East,91,2.0,10.0,50,0.00,,,0.00,Wunderground v.1.15,2013-10-12 22:32:00,
2013-10-12 16:38:00,50.9,33.9,30.39,ESE,104,2.0,10.0,52,0.00,,,0.00,Wunderground v.1.15,2013-10-12 22:38:00,
2013-10-12 16:44:00,50.7,33.2,30.39,East,95,2.0,10.0,51,0.00,,,0.00,Wunderground v.1.15,2013-10-12 22:44:00,
2013-10-12 16:50:00,50.5,34.0,30.39,East,84,2.0,10.0,53,0.00,,,0.00,Wunderground v.1.15,2013-10-12 22:50:00,
2013-10-12 16:56:00,50.4,34.4,30.39,East,84,1.0,10.0,54,0.00,,,0.00,Wunderground v.1.15,2013-10-12 22:56:00,
2013-10-12 17:02:00,50.3,34.7,30.39,East,97,2.0,10.0,55,0.00,,,0.00,Wunderground v.1.15,2013-10-12 23:02:00,
2013-10-12 17:08:00,50.4,34.8,30.39,East,97,2.0,10.0,55,0.00,,,0.00,Wunderground v.1.15,2013-10-12 23:08:00,
2013-10-12 17:14:00,50.6,34.6,30.39,East,97,2.0,10.0,54,0.00,,,0.00,Wunderground v.1.15,2013-10-12 23:14:00,
2013-10-12 17:20:00,50.8,34.7,30.39,East,97,2.0,10.0,54,0.00,,,0.00,Wunderground v.1.15,2013-10-12 23:20:00,
2013-10-12 17:26:00,50.6,34.6,30.39,East,100,2.0,10.0,54,0.00,,,0.00,Wunderground v.1.15,2013-10-12 23:26:00,
2013-10-12 17:32:00,50.2,35.1,30.39,East,83,2.0,10.0,56,0.00,,,0.00,Wunderground v.1.15,2013-10-12 23:32:00,
2013-10-12 17:37:00,49.6,35.8,30.39,East,83,2.0,10.0,59,0.00,,,0.00,Wunderground v.1.15,2013-10-12 23:37:00,
2013-10-12 17:44:00,49.1,35.8,30.39,East,82,2.0,10.0,60,0.00,,,0.00,Wunderground v.1.15,2013-10-12 23:44:00,
2013-10-12 17:50:00,48.7,36.3,30.39,East,83,1.0,10.0,62,0.00,,,0.00,Wunderground v.1.15,2013-10-12 23:50:00,
2013-10-12 17:56:00,48.4,36.4,30.40,East,83,1.0,10.0,63,0.00,,,0.00,Wunderground v.1.15,2013-10-12 23:56:00,
2013-10-12 18:02:00,48.0,36.4,30.40,East,83,1.0,10.0,64,0.00,,,0.00,Wunderground v.1.15,2013-10-13 00:02:00,
2013-10-12 18:08:00,47.5,35.5,30.40,East,83,1.0,10.0,63,0.00,,,0.00,Wunderground v.1.15,2013-10-13 00:08:00,
2013-10-12 18:14:00,47.2,35.2,30.40,East,82,2.0,10.0,63,0.00,,,0.00,Wunderground v.1.15,2013-10-13 00:14:00,
2013-10-12 18:20:00,47.0,35.0,30.40,ESE,114,2.0,10.0,63,0.00,,,0.00,Wunderground v.1.15,2013-10-13 00:20:00,
2013-10-12 18:26:00,46.8,35.3,30.40,ESE,114,2.0,10.0,64,0.00,,,0.00,Wunderground v.1.15,2013-10-13 00:26:00,
2013-10-12 18:32:00,46.7,34.8,30.40,ESE,114,2.0,10.0,63,0.00,,,0.00,Wunderground v.1.15,2013-10-13 00:32:00,
2013-10-12 18:38:00,46.6,34.3,30.41,ESE,114,2.0,10.0,62,0.00,,,0.00,Wunderground v.1.15,2013-10-13 00:38:00,
2013-10-12 18:44:00,46.5,34.2,30.41,ESE,114,2.0,10.0,62,0.00,,,0.00,Wunderground v.1.15,2013-10-13 00:44:00,
2013-10-12 18:49:00,46.3,34.0,30.41,ESE,114,2.0,2.0,62,0.00,,,0.00,Wunderground v.1.15,2013-10-13 00:49:00,
2013-10-12 18:56:00,46.1,33.8,30.41,ESE,114,2.0,10.0,62,0.00,,,0.00,Wunderground v.1.15,2013-10-13 00:56:00,
2013-10-12 19:02:00,46.1,34.2,30.41,SE,135,2.0,10.0,63,0.00,,,0.00,Wunderground v.1.15,2013-10-13 01:02:00,
2013-10-12 19:08:00,46.1,34.6,30.41,ESE,106,2.0,10.0,64,0.00,,,0.00,Wunderground v.1.15,2013-10-13 01:08:00,
2013-10-12 19:14:00,46.0,34.9,30.42,ESE,106,1.0,10.0,65,0.00,,,0.00,Wunderground v.1.15,2013-10-13 01:14:00,
2013-10-12 19:20:00,45.9,34.8,30.42,ESE,106,0.0,10.0,65,0.00,,,0.00,Wunderground v.1.15,2013-10-13 01:20:00,
2013-10-12 19:26:00,45.8,34.7,30.42,ESE,106,0.0,10.0,65,0.00,,,0.00,Wunderground v.1.15,2013-10-13 01:26:00,
2013-10-12 19:32:00,45.5,34.4,30.42,ESE,106,1.0,10.0,65,0.00,,,0.00,Wunderground v.1.15,2013-10-13 01:32:00,
2013-10-12 19:38:00,45.4,34.3,30.42,ESE,106,1.0,10.0,65,0.00,,,0.00,Wunderground v.1.15,2013-10-13 01:38:00,
2013-10-12 19:44:00,45.1,34.0,30.42,ESE,106,1.0,10.0,65,0.00,,,0.00,Wunderground v.1.15,2013-10-13 01:44:00,
2013-10-12 19:50:00,44.8,33.7,30.43,ESE,106,1.0,1.0,65,0.00,,,0.00,Wunderground v.1.15,2013-10-13 01:50:00,
2013-10-12 19:56:00,44.7,33.3,30.43,ESE,106,0.0,10.0,64,0.00,,,0.00,Wunderground v.1.15,2013-10-13 01:56:00,
2013-10-12 20:00:00,44.7,33.6,30.42,ESE,106,0.0,10.0,65,0.00,,,0.00,Wunderground v.1.15,2013-10-13 02:00:00,
2013-10-12 20:06:00,44.5,33.5,30.43,ESE,106,0.0,10.0,65,0.00,,,0.00,Wunderground v.1.15,2013-10-13 02:06:00,
2013-10-12 20:12:00,44.3,33.3,30.43,ESE,106,0.0,10.0,65,0.00,,,0.00,Wunderground v.1.15,2013-10-13 02:12:00,
2013-10-12 20:18:00,44.0,33.4,30.43,ESE,106,0.0,10.0,66,0.00,,,0.00,Wunderground v.1.15,2013-10-13 02:18:00,
2013-10-12 20:24:00,43.8,33.2,30.43,ESE,106,0.0,10.0,66,0.00,,,0.00,Wunderground v.1.15,2013-10-13 02:24:00,
2013-10-12 20:30:00,43.6,32.6,30.43,ESE,106,0.0,10.0,65,0.00,,,0.00,Wunderground v.1.15,2013-10-13 02:30:00,
2013-10-12 20:36:00,43.7,32.3,30.44,ESE,106,0.0,10.0,64,0.00,,,0.00,Wunderground v.1.15,2013-10-13 02:36:00,
2013-10-12 20:42:00,43.6,31.8,30.44,ESE,106,0.0,10.0,63,0.00,,,0.00,Wunderground v.1.15,2013-10-13 02:42:00,
2013-10-12 20:48:00,43.5,31.7,30.44,ESE,106,0.0,10.0,63,0.00,,,0.00,Wunderground v.1.15,2013-10-13 02:48:00,
2013-10-12 20:54:00,43.3,31.5,30.45,ESE,106,0.0,10.0,63,0.00,,,0.00,Wunderground v.1.15,2013-10-13 02:54:00,
2013-10-12 21:00:00,43.0,31.3,30.45,ESE,106,0.0,10.0,63,0.00,,,0.00,Wunderground v.1.15,2013-10-13 03:00:00,
2013-10-12 21:05:00,42.7,31.0,30.45,ESE,106,0.0,10.0,63,0.00,,,0.00,Wunderground v.1.15,2013-10-13 03:05:00,
2013-10-12 21:12:00,42.5,30.8,30.46,ESE,106,0.0,10.0,63,0.00,,,0.00,Wunderground v.1.15,2013-10-13 03:12:00,
2013-10-12 21:18:00,42.3,30.6,30.45,ESE,106,0.0,10.0,63,0.00,,,0.00,Wunderground v.1.15,2013-10-13 03:18:00,
2013-10-12 21:24:00,42.2,30.5,30.45,ESE,106,0.0,10.0,63,0.00,,,0.00,Wunderground v.1.15,2013-10-13 03:24:00,
2013-10-12 21:30:00,42.0,29.9,30.45,ESE,106,0.0,10.0,62,0.00,,,0.00,Wunderground v.1.15,2013-10-13 03:30:00,
2013-10-12 21:36:00,41.8,30.1,30.45,ESE,106,0.0,10.0,63,0.00,,,0.00,Wunderground v.1.15,2013-10-13 03:36:00,
2013-10-12 21:42:00,42.0,30.3,30.45,ESE,106,0.0,10.0,63,0.00,,,0.00,Wunderground v.1.15,2013-10-13 03:42:00,
2013-10-12 21:48:00,42.1,30.4,30.45,ESE,106,0.0,10.0,63,0.00,,,0.00,Wunderground v.1.15,2013-10-13 03:48:00,
2013-10-12 21:54:00,42.2,30.5,30.45,ESE,106,1.0,10.0,63,0.00,,,0.00,Wunderground v.1.15,2013-10-13 03:54:00,
2013-10-12 22:00:00,42.0,30.7,30.45,ESE,106,2.0,10.0,64,0.00,,,0.00,Wunderground v.1.15,2013-10-13 04:00:00,
2013-10-12 22:02:00,41.7,30.8,30.46,ESE,106,2.0,10.0,65,0.00,,,0.00,Wunderground v.1.15,2013-10-13 04:02:00,
2013-10-12 22:06:00,41.5,30.6,30.46,ESE,107,2.0,10.0,65,0.00,,,0.00,Wunderground v.1.15,2013-10-13 04:06:00,
2013-10-12 22:09:00,41.3,30.4,30.46,SE,137,3.0,3.0,65,0.00,,,0.00,Wunderground v.1.15,2013-10-13 04:09:00,
2013-10-12 22:16:00,41.3,30.4,30.46,SE,139,3.0,10.0,65,0.00,,,0.00,Wunderground v.1.15,2013-10-13 04:16:00,
2013-10-12 22:22:00,41.1,30.2,30.46,SE,143,3.0,10.0,65,0.00,,,0.00,Wunderground v.1.15,2013-10-13 04:22:00,
2013-10-12 22:26:00,41.1,30.6,30.46,SE,143,3.0,10.0,66,0.00,,,0.00,Wunderground v.1.15,2013-10-13 04:26:00,
2013-10-12 22:28:00,41.1,30.6,30.46,SE,143,3.0,10.0,66,0.00,,,0.00,Wunderground v.1.15,2013-10-13 04:28:00,
2013-10-12 22:34:00,41.3,30.8,30.46,SE,143,2.0,10.0,66,0.00,,,0.00,Wunderground v.1.15,2013-10-13 04:34:00,
2013-10-12 22:40:00,41.7,31.2,30.45,SSE,151,2.0,10.0,66,0.00,,,0.00,Wunderground v.1.15,2013-10-13 04:40:00,
2013-10-12 22:46:00,41.3,31.2,30.46,SSE,162,3.0,10.0,67,0.00,,,0.00,Wunderground v.1.15,2013-10-13 04:46:00,
2013-10-12 22:52:00,41.0,30.9,30.46,SSE,162,3.0,10.0,67,0.00,,,0.00,Wunderground v.1.15,2013-10-13 04:52:00,
2013-10-12 22:58:00,41.1,31.0,30.46,SE,146,3.0,10.0,67,0.00,,,0.00,Wunderground v.1.15,2013-10-13 04:58:00,
2013-10-12 23:04:00,40.5,31.1,30.46,SSE,154,4.0,10.0,69,0.00,,,0.00,Wunderground v.1.15,2013-10-13 05:04:00,
2013-10-12 23:10:00,40.9,31.5,30.47,SSE,160,4.0,10.0,69,0.00,,,0.00,Wunderground v.1.15,2013-10-13 05:10:00,
2013-10-12 23:16:00,41.8,31.6,30.47,SSE,161,3.0,10.0,67,0.00,,,0.00,Wunderground v.1.15,2013-10-13 05:16:00,
2013-10-12 23:21:00,42.4,32.2,30.48,South,178,4.0,10.0,67,0.00,,,0.00,Wunderground v.1.15,2013-10-13 05:21:00,
2013-10-12 23:28:00,42.7,32.1,30.48,South,186,5.0,10.0,66,0.00,,,0.00,Wunderground v.1.15,2013-10-13 05:28:00,
2013-10-12 23:34:00,42.9,31.9,30.49,South,187,6.0,10.0,65,0.00,,,0.00,Wunderground v.1.15,2013-10-13 05:34:00,
2013-10-12 23:40:00,43.1,32.5,30.48,South,187,5.0,5.0,66,0.00,,,0.00,Wunderground v.1.15,2013-10-13 05:40:00,
2013-10-12 23:46:00,43.1,32.5,30.47,SE,132,3.0,10.0,66,0.00,,,0.00,Wunderground v.1.15,2013-10-13 05:46:00,
2013-10-12 23:52:00,43.1,32.9,30.47,SE,133,2.0,10.0,67,0.00,,,0.00,Wunderground v.1.15,2013-10-13 05:52:00,
2013-10-12 23:58:00,43.0,32.8,30.47,SE,133,1.0,10.0,67,0.00,,,0.00,Wunderground v.1.15,2013-10-13 05:58:00,